sensor_id;sensor_type;location;lat;lon;timestamp;P1;durP1;ratioP1;P2;durP2;ratioP2
7306;SDS011;3694;48.732;9.248;2023-06-10T00:02:10;6.00;;;5.40;;
7306;SDS011;3694;48.732;9.248;2023-06-10T00:04:36;5.10;;;4.70;;
7306;SDS011;3694;48.732;9.248;2023-06-10T00:07:05;5.53;;;5.03;;
7306;SDS011;3694;48.732;9.248;2023-06-10T00:09:34;5.50;;;5.00;;
7306;SDS011;3694;48.732;9.248;2023-06-10T00:12:01;6.33;;;5.20;;
7306;SDS011;3694;48.732;9.248;2023-06-10T00:14:28;6.17;;;5.57;;
7306;SDS011;3694;48.732;9.248;2023-06-10T00:16:53;5.57;;;5.13;;
7306;SDS011;3694;48.732;9.248;2023-06-10T00:19:20;6.57;;;5.87;;
7306;SDS011;3694;48.732;9.248;2023-06-10T00:21:50;6.10;;;5.57;;
7306;SDS011;3694;48.732;9.248;2023-06-10T00:24:17;6.10;;;5.60;;
7306;SDS011;3694;48.732;9.248;2023-06-10T00:26:43;5.90;;;5.33;;
7306;SDS011;3694;48.732;9.248;2023-06-10T00:29:09;5.90;;;5.40;;
7306;SDS011;3694;48.732;9.248;2023-06-10T00:31:35;6.37;;;5.77;;
7306;SDS011;3694;48.732;9.248;2023-06-10T00:34:01;6.90;;;5.80;;
7306;SDS011;3694;48.732;9.248;2023-06-10T00:36:27;6.53;;;5.40;;
7306;SDS011;3694;48.732;9.248;2023-06-10T00:38:53;6.37;;;5.77;;
7306;SDS011;3694;48.732;9.248;2023-06-10T00:41:18;5.83;;;5.33;;
7306;SDS011;3694;48.732;9.248;2023-06-10T00:43:44;6.07;;;5.53;;
7306;SDS011;3694;48.732;9.248;2023-06-10T00:46:11;6.10;;;5.50;;
7306;SDS011;3694;48.732;9.248;2023-06-10T00:48:38;6.03;;;5.53;;
7306;SDS011;3694;48.732;9.248;2023-06-10T00:51:05;6.10;;;5.50;;
7306;SDS011;3694;48.732;9.248;2023-06-10T00:53:33;6.20;;;5.60;;
7306;SDS011;3694;48.732;9.248;2023-06-10T00:56:00;5.70;;;5.17;;
7306;SDS011;3694;48.732;9.248;2023-06-10T00:58:25;5.87;;;5.37;;
7306;SDS011;3694;48.732;9.248;2023-06-10T01:00:52;5.87;;;5.27;;
7306;SDS011;3694;48.732;9.248;2023-06-10T01:03:18;6.00;;;5.50;;
7306;SDS011;3694;48.732;9.248;2023-06-10T01:05:44;5.63;;;5.13;;
7306;SDS011;3694;48.732;9.248;2023-06-10T01:08:28;5.70;;;5.20;;
7306;SDS011;3694;48.732;9.248;2023-06-10T01:11:07;5.93;;;5.43;;
7306;SDS011;3694;48.732;9.248;2023-06-10T01:13:38;5.80;;;5.20;;
7306;SDS011;3694;48.732;9.248;2023-06-10T01:16:06;5.40;;;5.00;;
7306;SDS011;3694;48.732;9.248;2023-06-10T01:18:32;5.23;;;4.83;;
7306;SDS011;3694;48.732;9.248;2023-06-10T01:20:58;5.43;;;5.03;;
7306;SDS011;3694;48.732;9.248;2023-06-10T01:23:23;5.60;;;5.10;;
7306;SDS011;3694;48.732;9.248;2023-06-10T01:25:51;5.47;;;4.97;;
7306;SDS011;3694;48.732;9.248;2023-06-10T01:33:45;5.80;;;5.30;;
7306;SDS011;3694;48.732;9.248;2023-06-10T01:36:13;5.47;;;5.07;;
7306;SDS011;3694;48.732;9.248;2023-06-10T01:38:44;5.97;;;5.40;;
7306;SDS011;3694;48.732;9.248;2023-06-10T01:41:15;5.80;;;5.23;;
7306;SDS011;3694;48.732;9.248;2023-06-10T01:43:42;5.77;;;5.27;;
7306;SDS011;3694;48.732;9.248;2023-06-10T01:46:09;5.63;;;5.13;;
7306;SDS011;3694;48.732;9.248;2023-06-10T01:48:35;5.00;;;4.60;;
7306;SDS011;3694;48.732;9.248;2023-06-10T01:51:02;5.50;;;5.00;;
7306;SDS011;3694;48.732;9.248;2023-06-10T01:53:28;6.67;;;5.10;;
7306;SDS011;3694;48.732;9.248;2023-06-10T01:55:53;4.70;;;4.30;;
7306;SDS011;3694;48.732;9.248;2023-06-10T01:58:19;7.80;;;5.03;;
7306;SDS011;3694;48.732;9.248;2023-06-10T02:00:44;5.83;;;5.37;;
7306;SDS011;3694;48.732;9.248;2023-06-10T02:03:10;5.60;;;5.10;;
7306;SDS011;3694;48.732;9.248;2023-06-10T02:05:35;4.77;;;4.37;;
7306;SDS011;3694;48.732;9.248;2023-06-10T02:08:01;5.20;;;4.80;;
7306;SDS011;3694;48.732;9.248;2023-06-10T02:10:27;4.90;;;4.50;;
7306;SDS011;3694;48.732;9.248;2023-06-10T02:12:52;5.30;;;4.80;;
7306;SDS011;3694;48.732;9.248;2023-06-10T02:15:18;7.57;;;5.40;;
7306;SDS011;3694;48.732;9.248;2023-06-10T02:17:43;5.80;;;5.30;;
7306;SDS011;3694;48.732;9.248;2023-06-10T02:20:10;5.37;;;4.87;;
7306;SDS011;3694;48.732;9.248;2023-06-10T02:22:36;5.43;;;4.93;;
7306;SDS011;3694;48.732;9.248;2023-06-10T02:25:02;4.90;;;4.50;;
7306;SDS011;3694;48.732;9.248;2023-06-10T02:27:28;4.57;;;4.17;;
7306;SDS011;3694;48.732;9.248;2023-06-10T02:29:55;4.43;;;4.07;;
7306;SDS011;3694;48.732;9.248;2023-06-10T02:32:21;6.30;;;4.87;;
7306;SDS011;3694;48.732;9.248;2023-06-10T02:34:46;4.87;;;4.47;;
7306;SDS011;3694;48.732;9.248;2023-06-10T02:37:13;5.20;;;4.80;;
7306;SDS011;3694;48.732;9.248;2023-06-10T02:39:39;5.27;;;4.40;;
7306;SDS011;3694;48.732;9.248;2023-06-10T02:42:05;6.53;;;4.60;;
7306;SDS011;3694;48.732;9.248;2023-06-10T02:44:31;4.83;;;4.43;;
7306;SDS011;3694;48.732;9.248;2023-06-10T02:46:57;5.13;;;4.67;;
7306;SDS011;3694;48.732;9.248;2023-06-10T02:49:22;5.37;;;4.97;;
7306;SDS011;3694;48.732;9.248;2023-06-10T02:51:48;5.60;;;5.10;;
7306;SDS011;3694;48.732;9.248;2023-06-10T02:54:17;5.10;;;4.70;;
7306;SDS011;3694;48.732;9.248;2023-06-10T02:56:43;4.60;;;4.20;;
7306;SDS011;3694;48.732;9.248;2023-06-10T02:59:09;5.67;;;5.10;;
7306;SDS011;3694;48.732;9.248;2023-06-10T03:01:35;5.47;;;4.83;;
7306;SDS011;3694;48.732;9.248;2023-06-10T03:04:02;5.10;;;4.60;;
7306;SDS011;3694;48.732;9.248;2023-06-10T03:06:31;5.47;;;4.97;;
7306;SDS011;3694;48.732;9.248;2023-06-10T03:08:59;5.07;;;4.67;;
7306;SDS011;3694;48.732;9.248;2023-06-10T03:11:25;5.43;;;4.93;;
7306;SDS011;3694;48.732;9.248;2023-06-10T03:13:51;5.27;;;4.87;;
7306;SDS011;3694;48.732;9.248;2023-06-10T03:16:18;5.73;;;5.23;;
7306;SDS011;3694;48.732;9.248;2023-06-10T03:18:44;4.80;;;4.40;;
7306;SDS011;3694;48.732;9.248;2023-06-10T03:21:10;5.73;;;5.23;;
7306;SDS011;3694;48.732;9.248;2023-06-10T03:23:36;5.57;;;5.07;;
7306;SDS011;3694;48.732;9.248;2023-06-10T03:26:02;5.97;;;5.47;;
7306;SDS011;3694;48.732;9.248;2023-06-10T03:28:27;5.30;;;4.80;;
7306;SDS011;3694;48.732;9.248;2023-06-10T03:30:53;5.20;;;4.77;;
7306;SDS011;3694;48.732;9.248;2023-06-10T03:33:18;5.10;;;4.70;;
7306;SDS011;3694;48.732;9.248;2023-06-10T03:35:45;5.60;;;5.17;;
7306;SDS011;3694;48.732;9.248;2023-06-10T03:38:10;5.63;;;5.20;;
7306;SDS011;3694;48.732;9.248;2023-06-10T03:40:36;5.50;;;5.00;;
7306;SDS011;3694;48.732;9.248;2023-06-10T03:43:01;6.13;;;5.60;;
7306;SDS011;3694;48.732;9.248;2023-06-10T03:45:27;5.70;;;5.20;;
7306;SDS011;3694;48.732;9.248;2023-06-10T03:47:57;5.50;;;5.00;;
7306;SDS011;3694;48.732;9.248;2023-06-10T03:50:22;5.37;;;4.97;;
7306;SDS011;3694;48.732;9.248;2023-06-10T03:52:48;5.97;;;5.47;;
7306;SDS011;3694;48.732;9.248;2023-06-10T03:55:14;5.77;;;5.27;;
7306;SDS011;3694;48.732;9.248;2023-06-10T03:57:41;5.83;;;5.30;;
7306;SDS011;3694;48.732;9.248;2023-06-10T04:00:07;5.37;;;4.90;;
7306;SDS011;3694;48.732;9.248;2023-06-10T04:02:37;5.53;;;5.00;;
7306;SDS011;3694;48.732;9.248;2023-06-10T04:05:10;5.33;;;4.83;;
7306;SDS011;3694;48.732;9.248;2023-06-10T04:07:39;5.40;;;4.60;;
7306;SDS011;3694;48.732;9.248;2023-06-10T04:10:07;5.10;;;4.70;;
7306;SDS011;3694;48.732;9.248;2023-06-10T04:12:34;5.20;;;4.80;;
7306;SDS011;3694;48.732;9.248;2023-06-10T04:15:00;4.53;;;4.13;;
7306;SDS011;3694;48.732;9.248;2023-06-10T04:17:25;4.90;;;4.50;;
7306;SDS011;3694;48.732;9.248;2023-06-10T04:19:51;4.50;;;4.10;;
7306;SDS011;3694;48.732;9.248;2023-06-10T04:22:17;5.20;;;4.70;;
7306;SDS011;3694;48.732;9.248;2023-06-10T04:24:43;4.60;;;4.20;;
7306;SDS011;3694;48.732;9.248;2023-06-10T04:27:09;6.07;;;4.67;;
7306;SDS011;3694;48.732;9.248;2023-06-10T04:29:35;3.93;;;3.63;;
7306;SDS011;3694;48.732;9.248;2023-06-10T04:32:01;5.20;;;4.80;;
7306;SDS011;3694;48.732;9.248;2023-06-10T04:34:27;5.00;;;4.50;;
7306;SDS011;3694;48.732;9.248;2023-06-10T04:36:52;4.50;;;4.10;;
7306;SDS011;3694;48.732;9.248;2023-06-10T04:39:18;4.67;;;4.27;;
7306;SDS011;3694;48.732;9.248;2023-06-10T04:41:44;4.83;;;4.43;;
7306;SDS011;3694;48.732;9.248;2023-06-10T04:44:11;4.77;;;4.37;;
7306;SDS011;3694;48.732;9.248;2023-06-10T04:46:37;5.13;;;4.67;;
7306;SDS011;3694;48.732;9.248;2023-06-10T04:49:02;4.43;;;4.13;;
7306;SDS011;3694;48.732;9.248;2023-06-10T04:51:29;5.07;;;4.57;;
7306;SDS011;3694;48.732;9.248;2023-06-10T04:53:55;4.80;;;4.40;;
7306;SDS011;3694;48.732;9.248;2023-06-10T04:56:21;4.80;;;4.40;;
7306;SDS011;3694;48.732;9.248;2023-06-10T04:58:47;4.20;;;3.90;;
7306;SDS011;3694;48.732;9.248;2023-06-10T05:01:12;4.73;;;4.37;;
7306;SDS011;3694;48.732;9.248;2023-06-10T05:03:38;4.43;;;4.03;;
7306;SDS011;3694;48.732;9.248;2023-06-10T05:06:04;4.80;;;4.40;;
7306;SDS011;3694;48.732;9.248;2023-06-10T05:08:29;4.00;;;3.70;;
7306;SDS011;3694;48.732;9.248;2023-06-10T05:10:55;4.17;;;3.80;;
7306;SDS011;3694;48.732;9.248;2023-06-10T05:13:20;5.23;;;3.60;;
7306;SDS011;3694;48.732;9.248;2023-06-10T05:15:46;3.60;;;3.30;;
7306;SDS011;3694;48.732;9.248;2023-06-10T05:18:12;3.80;;;3.43;;
7306;SDS011;3694;48.732;9.248;2023-06-10T05:20:37;3.60;;;3.30;;
7306;SDS011;3694;48.732;9.248;2023-06-10T05:23:03;3.17;;;2.97;;
7306;SDS011;3694;48.732;9.248;2023-06-10T05:25:32;3.10;;;2.90;;
7306;SDS011;3694;48.732;9.248;2023-06-10T05:27:58;3.10;;;2.90;;
7306;SDS011;3694;48.732;9.248;2023-06-10T05:30:24;3.00;;;2.80;;
7306;SDS011;3694;48.732;9.248;2023-06-10T05:32:51;3.17;;;2.97;;
7306;SDS011;3694;48.732;9.248;2023-06-10T05:35:17;3.15;;;2.95;;
7306;SDS011;3694;48.732;9.248;2023-06-10T05:37:43;3.17;;;2.90;;
7306;SDS011;3694;48.732;9.248;2023-06-10T05:40:09;3.42;;;3.13;;
7306;SDS011;3694;48.732;9.248;2023-06-10T05:42:35;3.28;;;3.08;;
7306;SDS011;3694;48.732;9.248;2023-06-10T05:45:01;3.20;;;3.00;;
7306;SDS011;3694;48.732;9.248;2023-06-10T05:47:27;3.17;;;2.97;;
7306;SDS011;3694;48.732;9.248;2023-06-10T05:49:52;3.25;;;2.95;;
7306;SDS011;3694;48.732;9.248;2023-06-10T05:52:18;3.47;;;3.17;;
7306;SDS011;3694;48.732;9.248;2023-06-10T05:54:44;3.60;;;3.30;;
7306;SDS011;3694;48.732;9.248;2023-06-10T05:57:09;3.40;;;3.17;;
7306;SDS011;3694;48.732;9.248;2023-06-10T05:59:35;3.50;;;3.00;;
7306;SDS011;3694;48.732;9.248;2023-06-10T06:02:01;3.70;;;3.40;;
7306;SDS011;3694;48.732;9.248;2023-06-10T06:04:27;3.28;;;3.08;;
7306;SDS011;3694;48.732;9.248;2023-06-10T06:06:52;3.85;;;3.55;;
7306;SDS011;3694;48.732;9.248;2023-06-10T06:09:18;3.60;;;3.30;;
7306;SDS011;3694;48.732;9.248;2023-06-10T06:11:43;3.75;;;3.45;;
7306;SDS011;3694;48.732;9.248;2023-06-10T06:14:09;3.30;;;3.10;;
7306;SDS011;3694;48.732;9.248;2023-06-10T06:16:34;4.05;;;3.65;;
7306;SDS011;3694;48.732;9.248;2023-06-10T06:19:00;3.60;;;3.40;;
7306;SDS011;3694;48.732;9.248;2023-06-10T06:21:26;3.40;;;3.20;;
7306;SDS011;3694;48.732;9.248;2023-06-10T06:23:51;3.30;;;3.10;;
7306;SDS011;3694;48.732;9.248;2023-06-10T06:26:17;3.63;;;3.33;;
7306;SDS011;3694;48.732;9.248;2023-06-10T06:28:42;3.22;;;2.92;;
7306;SDS011;3694;48.732;9.248;2023-06-10T06:31:08;3.38;;;3.08;;
7306;SDS011;3694;48.732;9.248;2023-06-10T06:33:33;3.28;;;2.97;;
7306;SDS011;3694;48.732;9.248;2023-06-10T06:35:59;3.58;;;3.28;;
7306;SDS011;3694;48.732;9.248;2023-06-10T06:38:25;3.42;;;3.22;;
7306;SDS011;3694;48.732;9.248;2023-06-10T06:40:51;3.67;;;3.45;;
7306;SDS011;3694;48.732;9.248;2023-06-10T06:43:17;3.92;;;3.53;;
7306;SDS011;3694;48.732;9.248;2023-06-10T06:45:43;3.53;;;3.22;;
7306;SDS011;3694;48.732;9.248;2023-06-10T06:48:10;3.58;;;3.30;;
7306;SDS011;3694;48.732;9.248;2023-06-10T06:50:36;3.53;;;3.33;;
7306;SDS011;3694;48.732;9.248;2023-06-10T06:53:01;3.50;;;3.30;;
7306;SDS011;3694;48.732;9.248;2023-06-10T06:55:27;3.40;;;3.20;;
7306;SDS011;3694;48.732;9.248;2023-06-10T06:57:53;3.17;;;2.97;;
7306;SDS011;3694;48.732;9.248;2023-06-10T07:00:18;3.65;;;3.35;;
7306;SDS011;3694;48.732;9.248;2023-06-10T07:02:44;3.67;;;3.38;;
7306;SDS011;3694;48.732;9.248;2023-06-10T07:05:10;3.42;;;3.22;;
7306;SDS011;3694;48.732;9.248;2023-06-10T07:07:35;3.53;;;3.22;;
7306;SDS011;3694;48.732;9.248;2023-06-10T07:10:01;3.80;;;3.50;;
7306;SDS011;3694;48.732;9.248;2023-06-10T07:12:26;3.53;;;3.33;;
7306;SDS011;3694;48.732;9.248;2023-06-10T07:14:52;4.07;;;3.78;;
7306;SDS011;3694;48.732;9.248;2023-06-10T07:17:17;3.42;;;3.22;;
7306;SDS011;3694;48.732;9.248;2023-06-10T07:19:43;3.45;;;3.25;;
7306;SDS011;3694;48.732;9.248;2023-06-10T07:22:10;3.20;;;3.00;;
7306;SDS011;3694;48.732;9.248;2023-06-10T07:24:35;3.20;;;3.00;;
7306;SDS011;3694;48.732;9.248;2023-06-10T07:27:01;4.13;;;2.88;;
7306;SDS011;3694;48.732;9.248;2023-06-10T07:29:26;3.20;;;2.90;;
7306;SDS011;3694;48.732;9.248;2023-06-10T07:31:52;3.15;;;2.95;;
7306;SDS011;3694;48.732;9.248;2023-06-10T07:34:18;3.40;;;3.20;;
7306;SDS011;3694;48.732;9.248;2023-06-10T07:36:44;3.08;;;2.88;;
7306;SDS011;3694;48.732;9.248;2023-06-10T07:39:09;3.30;;;3.10;;
7306;SDS011;3694;48.732;9.248;2023-06-10T07:41:35;3.55;;;3.33;;
7306;SDS011;3694;48.732;9.248;2023-06-10T07:44:01;3.13;;;2.92;;
7306;SDS011;3694;48.732;9.248;2023-06-10T07:46:26;3.38;;;3.15;;
7306;SDS011;3694;48.732;9.248;2023-06-10T07:48:53;3.42;;;3.22;;
7306;SDS011;3694;48.732;9.248;2023-06-10T07:51:20;3.42;;;3.13;;
7306;SDS011;3694;48.732;9.248;2023-06-10T07:53:46;3.50;;;3.30;;
7306;SDS011;3694;48.732;9.248;2023-06-10T07:56:12;3.85;;;3.55;;
7306;SDS011;3694;48.732;9.248;2023-06-10T07:58:37;3.45;;;3.25;;
7306;SDS011;3694;48.732;9.248;2023-06-10T08:01:03;3.60;;;3.30;;
7306;SDS011;3694;48.732;9.248;2023-06-10T08:03:28;3.70;;;3.40;;
7306;SDS011;3694;48.732;9.248;2023-06-10T08:05:54;3.67;;;3.38;;
7306;SDS011;3694;48.732;9.248;2023-06-10T08:08:19;4.00;;;3.70;;
7306;SDS011;3694;48.732;9.248;2023-06-10T08:10:45;5.28;;;3.67;;
7306;SDS011;3694;48.732;9.248;2023-06-10T08:13:11;6.80;;;3.58;;
7306;SDS011;3694;48.732;9.248;2023-06-10T08:15:36;3.40;;;3.10;;
7306;SDS011;3694;48.732;9.248;2023-06-10T08:18:02;3.35;;;3.05;;
7306;SDS011;3694;48.732;9.248;2023-06-10T08:20:28;3.45;;;3.25;;
7306;SDS011;3694;48.732;9.248;2023-06-10T08:22:53;3.47;;;3.28;;
7306;SDS011;3694;48.732;9.248;2023-06-10T08:25:19;3.20;;;3.00;;
7306;SDS011;3694;48.732;9.248;2023-06-10T08:27:47;3.85;;;3.55;;
7306;SDS011;3694;48.732;9.248;2023-06-10T08:30:12;3.63;;;3.33;;
7306;SDS011;3694;48.732;9.248;2023-06-10T08:32:38;3.55;;;3.25;;
7306;SDS011;3694;48.732;9.248;2023-06-10T08:35:04;3.45;;;3.15;;
7306;SDS011;3694;48.732;9.248;2023-06-10T08:37:30;3.65;;;3.35;;
7306;SDS011;3694;48.732;9.248;2023-06-10T08:39:56;3.47;;;3.28;;
7306;SDS011;3694;48.732;9.248;2023-06-10T08:44:54;3.80;;;3.50;;
7306;SDS011;3694;48.732;9.248;2023-06-10T08:47:21;3.60;;;3.30;;
7306;SDS011;3694;48.732;9.248;2023-06-10T08:49:48;3.63;;;3.33;;
7306;SDS011;3694;48.732;9.248;2023-06-10T08:52:15;3.83;;;3.53;;
7306;SDS011;3694;48.732;9.248;2023-06-10T08:54:56;3.92;;;3.60;;
7306;SDS011;3694;48.732;9.248;2023-06-10T08:57:26;3.78;;;3.47;;
7306;SDS011;3694;48.732;9.248;2023-06-10T08:59:52;3.20;;;3.00;;
7306;SDS011;3694;48.732;9.248;2023-06-10T09:02:21;3.70;;;3.40;;
7306;SDS011;3694;48.732;9.248;2023-06-10T09:04:47;4.05;;;3.65;;
7306;SDS011;3694;48.732;9.248;2023-06-10T09:07:15;3.30;;;3.10;;
7306;SDS011;3694;48.732;9.248;2023-06-10T09:09:44;3.38;;;3.08;;
7306;SDS011;3694;48.732;9.248;2023-06-10T09:12:11;3.65;;;3.35;;
7306;SDS011;3694;48.732;9.248;2023-06-10T09:14:38;3.58;;;3.28;;
7306;SDS011;3694;48.732;9.248;2023-06-10T09:17:03;3.33;;;3.10;;
7306;SDS011;3694;48.732;9.248;2023-06-10T09:19:30;3.28;;;3.03;;
7306;SDS011;3694;48.732;9.248;2023-06-10T09:21:57;3.22;;;3.03;;
7306;SDS011;3694;48.732;9.248;2023-06-10T09:24:24;3.03;;;2.83;;
7306;SDS011;3694;48.732;9.248;2023-06-10T09:26:50;3.00;;;2.80;;
7306;SDS011;3694;48.732;9.248;2023-06-10T09:29:26;3.03;;;2.72;;
7306;SDS011;3694;48.732;9.248;2023-06-10T09:31:52;3.35;;;3.10;;
7306;SDS011;3694;48.732;9.248;2023-06-10T09:34:17;3.22;;;2.97;;
7306;SDS011;3694;48.732;9.248;2023-06-10T09:36:43;3.25;;;2.95;;
7306;SDS011;3694;48.732;9.248;2023-06-10T09:39:16;2.90;;;2.70;;
7306;SDS011;3694;48.732;9.248;2023-06-10T09:41:42;3.00;;;2.70;;
7306;SDS011;3694;48.732;9.248;2023-06-10T09:44:13;5.28;;;3.00;;
7306;SDS011;3694;48.732;9.248;2023-06-10T09:46:40;2.90;;;2.67;;
7306;SDS011;3694;48.732;9.248;2023-06-10T09:49:06;3.30;;;3.00;;
7306;SDS011;3694;48.732;9.248;2023-06-10T09:51:32;3.20;;;2.72;;
7306;SDS011;3694;48.732;9.248;2023-06-10T09:53:58;2.78;;;2.58;;
7306;SDS011;3694;48.732;9.248;2023-06-10T09:56:33;3.15;;;2.95;;
7306;SDS011;3694;48.732;9.248;2023-06-10T09:59:00;2.63;;;2.42;;
7306;SDS011;3694;48.732;9.248;2023-06-10T10:01:26;3.10;;;2.90;;
7306;SDS011;3694;48.732;9.248;2023-06-10T10:03:52;3.15;;;2.95;;
7306;SDS011;3694;48.732;9.248;2023-06-10T10:06:18;3.45;;;3.15;;
7306;SDS011;3694;48.732;9.248;2023-06-10T10:08:46;2.97;;;2.78;;
7306;SDS011;3694;48.732;9.248;2023-06-10T10:11:13;3.08;;;2.88;;
7306;SDS011;3694;48.732;9.248;2023-06-10T10:13:41;3.33;;;3.10;;
7306;SDS011;3694;48.732;9.248;2023-06-10T10:16:12;3.40;;;3.13;;
7306;SDS011;3694;48.732;9.248;2023-06-10T10:18:41;3.20;;;3.00;;
7306;SDS011;3694;48.732;9.248;2023-06-10T10:21:12;3.08;;;2.88;;
7306;SDS011;3694;48.732;9.248;2023-06-10T10:26:19;3.58;;;3.28;;
7306;SDS011;3694;48.732;9.248;2023-06-10T10:28:50;3.58;;;3.30;;
7306;SDS011;3694;48.732;9.248;2023-06-10T10:31:22;2.90;;;2.70;;
7306;SDS011;3694;48.732;9.248;2023-06-10T10:33:51;3.15;;;2.95;;
7306;SDS011;3694;48.732;9.248;2023-06-10T10:36:22;3.00;;;2.80;;
7306;SDS011;3694;48.732;9.248;2023-06-10T10:38:48;3.28;;;3.03;;
7306;SDS011;3694;48.732;9.248;2023-06-10T10:41:16;3.85;;;2.80;;
7306;SDS011;3694;48.732;9.248;2023-06-10T10:43:44;3.60;;;2.67;;
7306;SDS011;3694;48.732;9.248;2023-06-10T10:46:12;3.05;;;2.60;;
7306;SDS011;3694;48.732;9.248;2023-06-10T10:48:39;2.80;;;2.60;;
7306;SDS011;3694;48.732;9.248;2023-06-10T10:51:06;3.15;;;2.95;;
7306;SDS011;3694;48.732;9.248;2023-06-10T10:53:32;2.90;;;2.70;;
7306;SDS011;3694;48.732;9.248;2023-06-10T10:55:58;3.25;;;2.97;;
7306;SDS011;3694;48.732;9.248;2023-06-10T10:58:29;2.78;;;2.58;;
7306;SDS011;3694;48.732;9.248;2023-06-10T11:00:55;3.00;;;2.80;;
7306;SDS011;3694;48.732;9.248;2023-06-10T11:03:20;2.47;;;2.28;;
7306;SDS011;3694;48.732;9.248;2023-06-10T11:05:47;2.70;;;2.50;;
7306;SDS011;3694;48.732;9.248;2023-06-10T11:08:15;2.80;;;2.60;;
7306;SDS011;3694;48.732;9.248;2023-06-10T11:11:00;2.63;;;2.42;;
7306;SDS011;3694;48.732;9.248;2023-06-10T11:13:42;2.65;;;2.45;;
7306;SDS011;3694;48.732;9.248;2023-06-10T11:16:38;2.67;;;2.58;;
7306;SDS011;3694;48.732;9.248;2023-06-10T11:19:06;2.95;;;2.70;;
7306;SDS011;3694;48.732;9.248;2023-06-10T11:21:32;2.97;;;2.78;;
7306;SDS011;3694;48.732;9.248;2023-06-10T11:24:22;2.63;;;2.45;;
7306;SDS011;3694;48.732;9.248;2023-06-10T11:26:47;2.80;;;2.60;;
7306;SDS011;3694;48.732;9.248;2023-06-10T11:29:14;3.85;;;2.80;;
7306;SDS011;3694;48.732;9.248;2023-06-10T11:31:41;2.65;;;2.45;;
7306;SDS011;3694;48.732;9.248;2023-06-10T11:34:13;2.70;;;2.50;;
7306;SDS011;3694;48.732;9.248;2023-06-10T11:36:41;2.80;;;2.60;;
7306;SDS011;3694;48.732;9.248;2023-06-10T11:39:08;2.90;;;2.70;;
7306;SDS011;3694;48.732;9.248;2023-06-10T11:41:34;2.78;;;2.58;;
7306;SDS011;3694;48.732;9.248;2023-06-10T11:44:04;4.57;;;3.40;;
7306;SDS011;3694;48.732;9.248;2023-06-10T11:46:37;2.72;;;2.53;;
7306;SDS011;3694;48.732;9.248;2023-06-10T11:49:03;3.10;;;2.90;;
7306;SDS011;3694;48.732;9.248;2023-06-10T11:51:32;3.03;;;2.83;;
7306;SDS011;3694;48.732;9.248;2023-06-10T11:53:59;3.15;;;2.95;;
7306;SDS011;3694;48.732;9.248;2023-06-10T11:56:26;2.83;;;2.63;;
7306;SDS011;3694;48.732;9.248;2023-06-10T11:58:54;3.45;;;3.15;;
7306;SDS011;3694;48.732;9.248;2023-06-10T12:01:26;4.85;;;3.03;;
7306;SDS011;3694;48.732;9.248;2023-06-10T12:04:02;3.17;;;2.88;;
7306;SDS011;3694;48.732;9.248;2023-06-10T12:06:45;3.38;;;3.05;;
7306;SDS011;3694;48.732;9.248;2023-06-10T12:17:34;3.40;;;3.20;;
7306;SDS011;3694;48.732;9.248;2023-06-10T12:20:08;3.38;;;3.08;;
7306;SDS011;3694;48.732;9.248;2023-06-10T12:22:49;3.65;;;2.88;;
7306;SDS011;3694;48.732;9.248;2023-06-10T12:25:14;3.20;;;3.00;;
7306;SDS011;3694;48.732;9.248;2023-06-10T12:27:41;3.40;;;3.10;;
7306;SDS011;3694;48.732;9.248;2023-06-10T12:30:18;3.00;;;2.80;;
7306;SDS011;3694;48.732;9.248;2023-06-10T12:32:45;3.60;;;3.20;;
7306;SDS011;3694;48.732;9.248;2023-06-10T12:35:12;3.00;;;2.80;;
7306;SDS011;3694;48.732;9.248;2023-06-10T12:37:43;3.22;;;2.92;;
7306;SDS011;3694;48.732;9.248;2023-06-10T12:40:25;2.85;;;2.65;;
7306;SDS011;3694;48.732;9.248;2023-06-10T12:42:53;2.80;;;2.60;;
7306;SDS011;3694;48.732;9.248;2023-06-10T12:45:29;2.72;;;2.53;;
7306;SDS011;3694;48.732;9.248;2023-06-10T12:48:04;3.10;;;2.90;;
7306;SDS011;3694;48.732;9.248;2023-06-10T12:50:40;2.65;;;2.45;;
7306;SDS011;3694;48.732;9.248;2023-06-10T12:53:06;2.55;;;2.35;;
7306;SDS011;3694;48.732;9.248;2023-06-10T12:55:33;2.95;;;2.75;;
7306;SDS011;3694;48.732;9.248;2023-06-10T12:57:59;3.22;;;2.92;;
7306;SDS011;3694;48.732;9.248;2023-06-10T13:00:26;3.35;;;2.60;;
7306;SDS011;3694;48.732;9.248;2023-06-10T13:02:55;3.08;;;2.88;;
7306;SDS011;3694;48.732;9.248;2023-06-10T13:05:30;3.10;;;2.80;;
7306;SDS011;3694;48.732;9.248;2023-06-10T13:07:57;2.83;;;2.63;;
7306;SDS011;3694;48.732;9.248;2023-06-10T13:10:23;3.08;;;2.88;;
7306;SDS011;3694;48.732;9.248;2023-06-10T13:12:49;3.28;;;3.08;;
7306;SDS011;3694;48.732;9.248;2023-06-10T13:15:16;3.00;;;2.80;;
7306;SDS011;3694;48.732;9.248;2023-06-10T13:17:42;3.45;;;2.90;;
7306;SDS011;3694;48.732;9.248;2023-06-10T13:20:10;3.53;;;2.90;;
7306;SDS011;3694;48.732;9.248;2023-06-10T13:22:36;3.00;;;2.80;;
7306;SDS011;3694;48.732;9.248;2023-06-10T13:25:02;3.80;;;2.92;;
7306;SDS011;3694;48.732;9.248;2023-06-10T13:27:28;3.30;;;3.00;;
7306;SDS011;3694;48.732;9.248;2023-06-10T13:29:54;3.25;;;3.03;;
7306;SDS011;3694;48.732;9.248;2023-06-10T13:32:20;2.97;;;2.78;;
7306;SDS011;3694;48.732;9.248;2023-06-10T13:34:46;3.20;;;2.90;;
7306;SDS011;3694;48.732;9.248;2023-06-10T13:37:11;2.97;;;2.78;;
7306;SDS011;3694;48.732;9.248;2023-06-10T13:39:42;2.90;;;2.70;;
7306;SDS011;3694;48.732;9.248;2023-06-10T13:42:07;3.13;;;2.92;;
7306;SDS011;3694;48.732;9.248;2023-06-10T13:44:33;3.78;;;2.65;;
7306;SDS011;3694;48.732;9.248;2023-06-10T13:47:01;2.88;;;2.67;;
7306;SDS011;3694;48.732;9.248;2023-06-10T13:49:30;3.55;;;2.83;;
7306;SDS011;3694;48.732;9.248;2023-06-10T13:51:55;2.53;;;2.33;;
7306;SDS011;3694;48.732;9.248;2023-06-10T13:54:21;2.75;;;2.55;;
7306;SDS011;3694;48.732;9.248;2023-06-10T13:56:47;2.90;;;2.70;;
7306;SDS011;3694;48.732;9.248;2023-06-10T13:59:13;2.72;;;2.53;;
7306;SDS011;3694;48.732;9.248;2023-06-10T14:01:39;2.53;;;2.33;;
7306;SDS011;3694;48.732;9.248;2023-06-10T14:04:05;2.83;;;2.60;;
7306;SDS011;3694;48.732;9.248;2023-06-10T14:06:31;2.72;;;2.58;;
7306;SDS011;3694;48.732;9.248;2023-06-10T14:08:58;2.50;;;2.30;;
7306;SDS011;3694;48.732;9.248;2023-06-10T14:11:24;2.83;;;2.63;;
7306;SDS011;3694;48.732;9.248;2023-06-10T14:13:50;3.00;;;2.80;;
7306;SDS011;3694;48.732;9.248;2023-06-10T14:16:16;2.85;;;2.65;;
7306;SDS011;3694;48.732;9.248;2023-06-10T14:18:41;3.00;;;2.80;;
7306;SDS011;3694;48.732;9.248;2023-06-10T14:21:07;2.92;;;2.72;;
7306;SDS011;3694;48.732;9.248;2023-06-10T14:23:33;2.95;;;2.75;;
7306;SDS011;3694;48.732;9.248;2023-06-10T14:25:58;2.92;;;2.72;;
7306;SDS011;3694;48.732;9.248;2023-06-10T14:28:24;3.80;;;2.72;;
7306;SDS011;3694;48.732;9.248;2023-06-10T14:30:51;2.78;;;2.58;;
7306;SDS011;3694;48.732;9.248;2023-06-10T14:33:17;3.08;;;2.88;;
7306;SDS011;3694;48.732;9.248;2023-06-10T14:35:43;3.08;;;2.78;;
7306;SDS011;3694;48.732;9.248;2023-06-10T14:38:08;3.38;;;3.10;;
7306;SDS011;3694;48.732;9.248;2023-06-10T14:40:34;3.20;;;3.00;;
7306;SDS011;3694;48.732;9.248;2023-06-10T14:43:00;4.00;;;3.60;;
7306;SDS011;3694;48.732;9.248;2023-06-10T14:45:28;3.45;;;3.25;;
7306;SDS011;3694;48.732;9.248;2023-06-10T14:47:54;3.70;;;3.40;;
7306;SDS011;3694;48.732;9.248;2023-06-10T14:50:20;3.30;;;3.10;;
7306;SDS011;3694;48.732;9.248;2023-06-10T14:52:45;3.58;;;3.30;;
7306;SDS011;3694;48.732;9.248;2023-06-10T14:55:11;3.47;;;3.17;;
7306;SDS011;3694;48.732;9.248;2023-06-10T14:57:37;3.80;;;3.50;;
7306;SDS011;3694;48.732;9.248;2023-06-10T15:00:02;3.70;;;3.42;;
7306;SDS011;3694;48.732;9.248;2023-06-10T15:02:28;3.10;;;2.90;;
7306;SDS011;3694;48.732;9.248;2023-06-10T15:04:54;3.67;;;3.33;;
7306;SDS011;3694;48.732;9.248;2023-06-10T15:07:19;3.60;;;3.38;;
7306;SDS011;3694;48.732;9.248;2023-06-10T15:09:45;3.17;;;2.97;;
7306;SDS011;3694;48.732;9.248;2023-06-10T15:12:10;3.42;;;3.13;;
7306;SDS011;3694;48.732;9.248;2023-06-10T15:14:36;3.20;;;3.00;;
7306;SDS011;3694;48.732;9.248;2023-06-10T15:17:02;3.47;;;3.17;;
7306;SDS011;3694;48.732;9.248;2023-06-10T15:19:28;3.35;;;3.10;;
7306;SDS011;3694;48.732;9.248;2023-06-10T15:21:53;3.30;;;3.10;;
7306;SDS011;3694;48.732;9.248;2023-06-10T15:24:19;3.53;;;3.22;;
7306;SDS011;3694;48.732;9.248;2023-06-10T15:26:44;4.97;;;4.57;;
7306;SDS011;3694;48.732;9.248;2023-06-10T15:29:10;3.47;;;3.28;;
7306;SDS011;3694;48.732;9.248;2023-06-10T15:31:36;3.40;;;3.20;;
7306;SDS011;3694;48.732;9.248;2023-06-10T15:34:02;3.60;;;3.30;;